createdAt,value
2023-07-27T00:02:16.460Z,5.63
2023-07-27T00:04:45.145Z,4.10
2023-07-27T00:07:16.665Z,5.07
2023-07-27T00:09:43.330Z,4.32
2023-07-27T00:12:12.259Z,4.13
2023-07-27T00:14:41.485Z,5.32
2023-07-27T00:17:11.663Z,4.47
2023-07-27T00:19:38.442Z,6.60
2023-07-27T00:22:05.372Z,5.43
2023-07-27T00:24:34.572Z,4.40
2023-07-27T00:27:01.204Z,4.35
2023-07-27T00:29:32.756Z,3.67
2023-07-27T00:31:59.344Z,6.30
2023-07-27T00:34:26.295Z,4.88
2023-07-27T00:36:52.883Z,5.15
2023-07-27T00:39:22.220Z,7.18
2023-07-27T00:41:51.316Z,4.07
2023-07-27T00:44:17.936Z,4.68
2023-07-27T00:46:44.809Z,3.80
2023-07-27T00:49:13.818Z,3.92
2023-07-27T00:51:45.820Z,4.95
2023-07-27T00:54:14.235Z,4.97
2023-07-27T00:56:43.058Z,3.60
2023-07-27T00:59:12.093Z,3.95
2023-07-27T01:01:43.452Z,4.00
2023-07-27T01:04:10.495Z,3.58
2023-07-27T01:06:42.031Z,4.13
2023-07-27T01:09:08.848Z,4.10
2023-07-27T01:11:56.809Z,4.60
2023-07-27T01:14:38.788Z,4.05
2023-07-27T01:17:23.097Z,4.70
2023-07-27T01:20:16.125Z,5.40
2023-07-27T01:23:20.925Z,4.63
2023-07-27T01:26:21.180Z,4.30
2023-07-27T01:29:22.455Z,6.25
2023-07-27T01:31:54.259Z,5.03
2023-07-27T01:34:32.500Z,6.00
2023-07-27T01:37:09.430Z,6.00
2023-07-27T01:39:44.475Z,4.50
2023-07-27T01:42:14.642Z,5.65
2023-07-27T01:44:44.336Z,4.70
2023-07-27T01:47:17.262Z,4.00
2023-07-27T01:49:45.946Z,3.90
2023-07-27T01:52:14.102Z,4.65
2023-07-27T01:54:41.066Z,6.10
2023-07-27T01:57:09.961Z,5.28
2023-07-27T01:59:40.826Z,5.37
2023-07-27T02:02:10.153Z,6.68
2023-07-27T02:04:37.259Z,5.30
2023-07-27T02:07:06.237Z,23.08
2023-07-27T02:09:32.890Z,30.90
2023-07-27T02:12:07.064Z,23.63
2023-07-27T02:14:56.815Z,26.60
2023-07-27T02:17:35.120Z,19.40
2023-07-27T02:20:03.947Z,14.73
2023-07-27T02:22:31.429Z,13.15
2023-07-27T02:25:02.531Z,10.67
2023-07-27T02:27:31.958Z,7.68
2023-07-27T02:30:00.785Z,5.88
2023-07-27T02:32:27.470Z,6.57
2023-07-27T02:34:54.426Z,5.47
2023-07-27T02:37:23.252Z,8.37
2023-07-27T02:39:49.855Z,6.40
2023-07-27T02:42:16.428Z,6.20
2023-07-27T02:44:45.239Z,4.47
2023-07-27T02:47:14.660Z,5.70
2023-07-27T02:49:41.601Z,6.00
2023-07-27T02:52:11.016Z,4.18
2023-07-27T02:54:39.949Z,5.30
2023-07-27T02:57:08.999Z,5.78
2023-07-27T02:59:35.944Z,4.20
2023-07-27T03:02:05.348Z,5.07
2023-07-27T03:04:31.984Z,7.57
2023-07-27T03:06:58.961Z,6.00
2023-07-27T03:09:28.557Z,5.97
2023-07-27T03:11:57.806Z,4.68
2023-07-27T03:14:26.657Z,6.50
2023-07-27T03:17:00.399Z,4.30
2023-07-27T03:19:27.789Z,4.85
2023-07-27T03:21:59.243Z,7.35
2023-07-27T03:24:28.123Z,4.90
2023-07-27T03:26:54.891Z,6.53
2023-07-27T03:29:28.561Z,5.68
2023-07-27T03:31:55.639Z,7.70
2023-07-27T03:34:22.318Z,4.88
2023-07-27T03:36:48.889Z,4.78
2023-07-27T03:39:15.820Z,6.40
2023-07-27T03:41:44.568Z,6.50
2023-07-27T03:44:15.251Z,6.68
2023-07-27T03:46:44.626Z,5.68
2023-07-27T03:49:14.217Z,4.80
2023-07-27T03:51:43.740Z,6.10
2023-07-27T03:54:10.426Z,5.50
2023-07-27T03:56:39.176Z,4.95
2023-07-27T03:59:08.169Z,5.93
2023-07-27T04:01:36.998Z,5.80
2023-07-27T04:04:08.496Z,7.07
2023-07-27T04:06:35.456Z,5.60
2023-07-27T04:09:02.382Z,6.18
2023-07-27T04:11:29.013Z,6.32
2023-07-27T04:13:57.856Z,7.05
2023-07-27T04:16:24.536Z,8.07
2023-07-27T04:18:53.521Z,8.10
2023-07-27T04:21:20.194Z,7.30
2023-07-27T04:23:46.896Z,7.97
2023-07-27T04:26:18.450Z,6.97
2023-07-27T04:28:45.567Z,7.90
2023-07-27T04:31:14.696Z,8.63
2023-07-27T04:33:44.296Z,7.60
2023-07-27T04:36:11.099Z,7.63
2023-07-27T04:38:37.709Z,7.05
2023-07-27T04:41:06.597Z,6.73
2023-07-27T04:43:33.184Z,7.03
2023-07-27T04:46:02.080Z,7.93
2023-07-27T04:48:28.751Z,7.40
2023-07-27T04:50:55.851Z,5.68
2023-07-27T04:53:22.471Z,7.37
2023-07-27T04:55:49.101Z,6.72
2023-07-27T04:58:20.543Z,6.53
2023-07-27T05:00:56.295Z,7.35
2023-07-27T05:03:25.369Z,6.28
2023-07-27T05:05:55.464Z,6.27
2023-07-27T05:08:22.093Z,7.45
2023-07-27T05:10:48.681Z,7.68
2023-07-27T05:13:15.302Z,6.85
2023-07-27T05:15:42.612Z,7.88
2023-07-27T05:18:09.316Z,8.67
2023-07-27T05:20:35.924Z,7.05
2023-07-27T05:23:04.860Z,7.35
2023-07-27T05:25:31.540Z,5.85
2023-07-27T05:28:00.249Z,7.18
2023-07-27T05:30:26.950Z,7.30
2023-07-27T05:32:55.913Z,6.28
2023-07-27T05:35:22.532Z,7.20
2023-07-27T05:37:51.615Z,7.80
2023-07-27T05:40:20.437Z,8.27
2023-07-27T05:42:47.012Z,9.10
2023-07-27T05:45:18.237Z,7.75
2023-07-27T05:47:44.886Z,7.03
2023-07-27T05:50:12.845Z,8.43
2023-07-27T05:52:39.474Z,7.43
2023-07-27T05:55:08.825Z,8.47
2023-07-27T05:57:35.406Z,6.60
2023-07-27T06:00:07.525Z,9.20
2023-07-27T06:02:37.190Z,8.15
2023-07-27T06:05:04.277Z,8.20
2023-07-27T06:07:31.107Z,8.87
2023-07-27T06:09:57.711Z,8.38
2023-07-27T06:12:26.814Z,8.38
2023-07-27T06:14:55.754Z,8.05
2023-07-27T06:17:25.529Z,7.07
2023-07-27T06:19:54.763Z,9.73
2023-07-27T06:22:21.857Z,7.60
2023-07-27T06:24:53.311Z,7.05
2023-07-27T06:27:20.119Z,6.35
2023-07-27T06:29:47.150Z,6.38
2023-07-27T06:32:16.301Z,6.87
2023-07-27T06:34:45.342Z,7.43
2023-07-27T06:37:12.075Z,6.10
2023-07-27T06:39:39.419Z,7.35
2023-07-27T06:42:08.746Z,6.72
2023-07-27T06:44:37.833Z,7.00
2023-07-27T06:47:07.459Z,8.43
2023-07-27T06:49:36.581Z,7.57
2023-07-27T06:52:10.393Z,9.57
2023-07-27T06:54:37.948Z,6.95
2023-07-27T06:57:11.600Z,7.10
2023-07-27T06:59:38.418Z,7.40
2023-07-27T07:02:07.866Z,8.23
2023-07-27T07:04:40.473Z,8.10
2023-07-27T07:07:13.017Z,6.72
2023-07-27T07:09:42.004Z,7.97
2023-07-27T07:12:09.327Z,7.43
2023-07-27T07:14:35.959Z,7.45
2023-07-27T07:17:03.531Z,7.10
2023-07-27T07:19:32.341Z,7.05
2023-07-27T07:22:01.759Z,8.23
2023-07-27T07:24:28.490Z,6.65
2023-07-27T07:26:56.953Z,8.30
2023-07-27T07:29:26.303Z,6.82
2023-07-27T07:31:55.917Z,6.18
2023-07-27T07:34:24.810Z,6.73
2023-07-27T07:36:51.467Z,5.97
2023-07-27T07:39:18.309Z,4.90
2023-07-27T07:41:45.356Z,9.38
2023-07-27T07:44:11.983Z,5.70
2023-07-27T07:46:43.546Z,5.27
2023-07-27T07:49:12.928Z,5.90
2023-07-27T07:51:39.485Z,6.40
2023-07-27T07:54:10.981Z,6.13
2023-07-27T07:56:40.860Z,6.05
2023-07-27T07:59:07.908Z,5.97
2023-07-27T08:01:34.996Z,5.85
2023-07-27T08:04:01.795Z,5.22
2023-07-27T08:06:28.372Z,6.78
2023-07-27T08:08:57.033Z,6.25
2023-07-27T08:11:23.657Z,4.47
2023-07-27T08:13:56.423Z,5.57
2023-07-27T08:16:26.168Z,5.65
2023-07-27T08:18:52.789Z,5.95
2023-07-27T08:21:19.414Z,5.57
2023-07-27T08:23:48.495Z,6.43
2023-07-27T08:26:17.588Z,5.60
2023-07-27T08:28:47.077Z,5.18
2023-07-27T08:31:16.280Z,5.93
2023-07-27T08:33:44.933Z,4.63
2023-07-27T08:36:14.490Z,5.93
2023-07-27T08:38:41.232Z,5.45
2023-07-27T08:41:07.790Z,5.47
2023-07-27T08:43:34.529Z,8.13
2023-07-27T08:46:01.972Z,5.82
2023-07-27T08:48:31.840Z,5.40
2023-07-27T08:50:59.609Z,6.55
2023-07-27T08:53:31.283Z,5.93
2023-07-27T08:55:59.637Z,5.43
2023-07-27T08:58:26.925Z,6.20
2023-07-27T09:00:53.617Z,6.77
2023-07-27T09:03:22.705Z,4.85
2023-07-27T09:06:04.970Z,5.00
2023-07-27T09:08:31.729Z,6.47
2023-07-27T09:11:09.734Z,6.65
2023-07-27T09:13:40.331Z,5.53
2023-07-27T09:16:07.992Z,7.95
2023-07-27T09:18:39.421Z,4.75
2023-07-27T09:21:12.083Z,4.82
2023-07-27T09:23:39.693Z,5.97
2023-07-27T09:26:07.310Z,5.73
2023-07-27T09:28:39.409Z,5.70
2023-07-27T09:31:06.067Z,5.68
2023-07-27T09:33:35.008Z,8.00
2023-07-27T09:36:03.640Z,5.65
2023-07-27T09:38:30.482Z,6.23
2023-07-27T09:40:57.178Z,6.43
2023-07-27T09:43:28.973Z,5.70
2023-07-27T09:46:00.777Z,6.32
2023-07-27T09:48:31.166Z,5.45
2023-07-27T09:51:08.035Z,4.73
2023-07-27T09:53:41.663Z,5.10
2023-07-27T09:56:09.001Z,6.35
2023-07-27T09:58:37.787Z,4.25
2023-07-27T10:01:07.027Z,6.05
2023-07-27T10:03:33.948Z,4.47
2023-07-27T10:06:04.137Z,5.75
2023-07-27T10:08:34.651Z,5.80
2023-07-27T10:11:05.198Z,4.88
2023-07-27T10:13:38.361Z,6.70
2023-07-27T10:16:08.673Z,4.93
2023-07-27T10:18:41.732Z,5.28
2023-07-27T10:21:24.685Z,6.25
2023-07-27T10:24:01.994Z,4.95
2023-07-27T10:26:56.080Z,5.43
2023-07-27T10:29:23.959Z,6.33
2023-07-27T10:32:06.901Z,6.38
2023-07-27T10:34:41.866Z,5.57
2023-07-27T10:37:11.324Z,6.28
2023-07-27T10:39:53.402Z,5.85
2023-07-27T10:42:31.182Z,5.40
2023-07-27T10:45:00.399Z,5.82
2023-07-27T10:47:38.659Z,6.03
2023-07-27T10:50:10.155Z,6.80
2023-07-27T10:52:42.053Z,6.05
2023-07-27T10:55:11.180Z,5.37
2023-07-27T10:57:38.935Z,7.13
2023-07-27T11:00:06.582Z,5.07
2023-07-27T11:02:34.622Z,5.45
2023-07-27T11:05:10.887Z,6.47
2023-07-27T11:07:39.848Z,7.10
2023-07-27T11:10:16.988Z,6.03
2023-07-27T11:12:53.589Z,6.28
2023-07-27T11:15:33.076Z,7.43
2023-07-27T11:18:03.086Z,4.88
2023-07-27T11:20:33.287Z,5.50
2023-07-27T11:23:00.400Z,5.18
2023-07-27T11:25:33.928Z,6.53
2023-07-27T11:28:04.523Z,6.70
2023-07-27T11:30:36.889Z,6.22
2023-07-27T11:33:12.211Z,6.63
2023-07-27T11:35:48.823Z,5.93
2023-07-27T11:38:15.438Z,6.10
2023-07-27T11:40:50.633Z,5.70
2023-07-27T11:43:17.363Z,6.32
2023-07-27T11:45:46.538Z,6.20
2023-07-27T11:48:13.572Z,6.30
2023-07-27T11:50:40.308Z,5.20
2023-07-27T11:53:19.839Z,4.93
2023-07-27T11:55:58.662Z,5.13
2023-07-27T11:58:30.727Z,6.27
2023-07-27T12:00:57.465Z,4.78
2023-07-27T12:03:26.453Z,5.75
2023-07-27T12:05:55.127Z,5.85
2023-07-27T12:13:58.952Z,5.07
2023-07-27T12:16:18.962Z,8.07
2023-07-27T12:27:16.726Z,6.13
2023-07-27T12:34:25.634Z,6.15
2023-07-27T12:39:24.286Z,6.07
2023-07-27T12:44:25.555Z,5.20
2023-07-27T12:46:56.671Z,4.65
2023-07-27T12:49:28.064Z,4.07
2023-07-27T12:51:57.701Z,5.72
2023-07-27T12:54:26.548Z,6.40
2023-07-27T12:56:53.175Z,5.30
2023-07-27T12:59:19.826Z,5.80
2023-07-27T13:01:46.378Z,5.03
2023-07-27T13:04:13.025Z,4.50
2023-07-27T13:06:41.871Z,6.35
2023-07-27T13:09:09.035Z,5.32
2023-07-27T13:11:38.486Z,4.90
2023-07-27T13:14:05.110Z,5.07
2023-07-27T13:16:35.210Z,4.63
2023-07-27T13:19:02.313Z,6.38
2023-07-27T13:21:29.002Z,6.15
2023-07-27T13:23:55.834Z,3.85
2023-07-27T13:26:29.752Z,4.30
2023-07-27T13:28:58.803Z,4.75
2023-07-27T13:31:28.427Z,7.53
2023-07-27T13:33:58.288Z,4.35
2023-07-27T13:36:31.761Z,6.55
2023-07-27T13:39:04.248Z,5.10
2023-07-27T13:41:30.867Z,4.93
2023-07-27T13:43:57.678Z,4.75
2023-07-27T13:46:29.128Z,5.03
2023-07-27T13:48:55.755Z,4.78
2023-07-27T13:51:27.174Z,6.80
2023-07-27T13:53:56.443Z,4.75
2023-07-27T13:56:25.271Z,4.07
2023-07-27T13:58:51.829Z,4.82
2023-07-27T14:01:20.926Z,5.18
2023-07-27T14:03:50.626Z,3.97
2023-07-27T14:06:17.312Z,4.60
2023-07-27T14:08:43.908Z,4.97
2023-07-27T14:11:15.209Z,5.10
2023-07-27T14:13:44.815Z,5.78
2023-07-27T14:16:13.726Z,5.13
2023-07-27T14:18:44.777Z,4.43
2023-07-27T14:21:13.504Z,6.28
2023-07-27T14:23:42.421Z,4.03
2023-07-27T14:26:12.864Z,5.53
2023-07-27T14:28:41.746Z,5.63
2023-07-27T14:31:13.501Z,5.40
2023-07-27T14:33:40.956Z,5.68
2023-07-27T14:36:07.700Z,5.00
2023-07-27T14:38:34.401Z,5.60
2023-07-27T14:41:03.409Z,6.13
2023-07-27T14:43:32.379Z,7.97
2023-07-27T14:46:01.296Z,5.88
2023-07-27T14:48:27.936Z,4.80
2023-07-27T14:50:54.558Z,5.10
2023-07-27T14:53:25.339Z,5.53
2023-07-27T14:55:52.108Z,5.70
2023-07-27T14:58:20.883Z,5.53
2023-07-27T15:03:22.871Z,5.35
2023-07-27T15:05:53.593Z,5.20
2023-07-27T15:08:22.732Z,6.22
2023-07-27T15:13:36.010Z,6.10
2023-07-27T15:16:02.639Z,5.13
2023-07-27T15:18:29.369Z,4.30
2023-07-27T15:20:59.500Z,5.63
2023-07-27T15:23:28.592Z,5.55
2023-07-27T15:25:56.498Z,5.30
2023-07-27T15:28:25.405Z,5.55
2023-07-27T15:30:52.482Z,5.40
2023-07-27T15:33:19.944Z,4.93
2023-07-27T15:35:48.985Z,5.20
2023-07-27T15:38:18.276Z,6.05
2023-07-27T15:40:50.675Z,4.32
2023-07-27T15:43:20.290Z,5.77
2023-07-27T15:45:50.148Z,5.05
2023-07-27T15:48:20.439Z,4.80
2023-07-27T15:50:49.469Z,4.60
2023-07-27T15:53:16.444Z,4.82
2023-07-27T15:55:43.500Z,4.30
2023-07-27T15:58:13.076Z,5.25
2023-07-27T16:00:40.490Z,6.22
2023-07-27T16:03:09.519Z,6.07
2023-07-27T16:05:37.332Z,5.35
2023-07-27T16:08:07.156Z,5.50
2023-07-27T16:10:35.997Z,6.43
2023-07-27T16:13:02.569Z,5.30
2023-07-27T16:15:29.804Z,8.55
2023-07-27T16:17:58.953Z,4.85
2023-07-27T16:20:25.635Z,5.33
2023-07-27T16:22:55.062Z,4.75
2023-07-27T16:25:22.907Z,4.82
2023-07-27T16:27:49.595Z,4.57
2023-07-27T16:30:16.350Z,5.18
2023-07-27T16:32:47.802Z,6.03
2023-07-27T16:35:15.857Z,5.18
2023-07-27T16:37:44.926Z,4.72
2023-07-27T16:40:12.244Z,4.47
2023-07-27T16:42:39.056Z,5.53
2023-07-27T16:45:06.275Z,4.80
2023-07-27T16:47:35.329Z,4.88
2023-07-27T16:50:01.900Z,5.15
2023-07-27T16:52:30.529Z,5.28
2023-07-27T16:54:57.114Z,5.43
2023-07-27T16:57:23.712Z,4.47
2023-07-27T16:59:52.686Z,4.90
2023-07-27T17:02:24.018Z,4.13
2023-07-27T17:04:53.242Z,4.80
2023-07-27T17:07:22.346Z,4.50
2023-07-27T17:09:51.411Z,4.00
2023-07-27T17:12:18.146Z,4.07
2023-07-27T17:14:44.806Z,5.35
2023-07-27T17:17:11.431Z,5.03
2023-07-27T17:19:40.487Z,5.25
2023-07-27T17:22:07.342Z,4.17
2023-07-27T17:24:34.081Z,5.95
2023-07-27T17:27:00.735Z,4.88
2023-07-27T17:29:27.816Z,5.18
2023-07-27T17:32:01.814Z,4.95
2023-07-27T17:34:32.584Z,4.07
2023-07-27T17:36:59.633Z,4.25
2023-07-27T17:39:26.393Z,4.97
2023-07-27T17:41:52.968Z,4.05
2023-07-27T17:44:19.549Z,3.83
2023-07-27T17:46:46.211Z,4.93
2023-07-27T17:49:14.249Z,4.25
2023-07-27T17:51:43.053Z,7.07
2023-07-27T17:54:13.920Z,5.55
2023-07-27T17:56:41.726Z,5.78
2023-07-27T17:59:08.370Z,4.20
2023-07-27T18:01:39.269Z,5.45
2023-07-27T18:04:05.894Z,4.47
2023-07-27T18:06:35.788Z,5.22
2023-07-27T18:09:03.507Z,4.32
2023-07-27T18:11:32.711Z,5.13
2023-07-27T18:13:59.508Z,4.18
2023-07-27T18:16:26.104Z,4.50
2023-07-27T18:18:52.713Z,5.90
2023-07-27T18:21:19.579Z,3.83
2023-07-27T18:23:47.954Z,3.70
2023-07-27T18:26:25.536Z,4.35
2023-07-27T18:28:52.117Z,3.05
2023-07-27T18:31:22.194Z,3.33
2023-07-27T18:33:51.611Z,4.60
2023-07-27T18:36:19.285Z,6.17
2023-07-27T18:38:48.844Z,4.72
2023-07-27T18:41:17.448Z,5.72
2023-07-27T18:43:44.501Z,3.53
2023-07-27T18:46:16.101Z,3.85
2023-07-27T18:48:46.091Z,4.10
2023-07-27T18:51:12.634Z,8.10
2023-07-27T18:53:44.021Z,4.97
2023-07-27T18:56:15.573Z,3.88
2023-07-27T18:58:46.910Z,5.85
2023-07-27T19:01:16.012Z,4.13
2023-07-27T19:03:43.119Z,2.95
2023-07-27T19:06:12.289Z,4.88
2023-07-27T19:08:41.242Z,5.68
2023-07-27T19:11:12.536Z,3.80
2023-07-27T19:13:39.303Z,4.30
2023-07-27T19:16:06.527Z,4.03
2023-07-27T19:18:38.642Z,4.20
2023-07-27T19:21:07.492Z,3.65
2023-07-27T19:23:37.312Z,3.75
2023-07-27T19:26:03.967Z,3.77
2023-07-27T19:28:30.913Z,4.13
2023-07-27T19:30:57.658Z,4.07
2023-07-27T19:33:24.314Z,3.78
2023-07-27T19:35:50.948Z,4.68
2023-07-27T19:38:17.903Z,4.20
2023-07-27T19:40:47.112Z,4.78
2023-07-27T19:43:15.896Z,3.95
2023-07-27T19:45:42.820Z,6.43
2023-07-27T19:48:15.604Z,4.13
2023-07-27T19:50:42.314Z,4.20
2023-07-27T19:53:11.098Z,4.88
2023-07-27T19:55:39.899Z,5.88
2023-07-27T19:58:08.768Z,4.72
2023-07-27T20:00:37.879Z,5.82
2023-07-27T20:03:04.612Z,5.43
2023-07-27T20:05:36.679Z,6.10
2023-07-27T20:08:05.590Z,4.82
2023-07-27T20:10:32.232Z,3.42
2023-07-27T20:12:58.952Z,5.15
2023-07-27T20:15:27.766Z,3.70
2023-07-27T20:17:54.409Z,5.50
2023-07-27T20:20:23.511Z,6.13
2023-07-27T20:22:52.414Z,4.07
2023-07-27T20:25:19.067Z,5.32
2023-07-27T20:27:50.213Z,5.83
2023-07-27T20:30:19.178Z,3.70
2023-07-27T20:32:49.261Z,4.00
2023-07-27T20:35:15.990Z,4.68
2023-07-27T20:37:42.989Z,4.25
2023-07-27T20:40:12.476Z,4.87
2023-07-27T20:42:39.131Z,4.57
2023-07-27T20:45:07.820Z,5.25
2023-07-27T20:47:37.158Z,4.45
2023-07-27T20:50:04.457Z,5.00
2023-07-27T20:52:31.115Z,4.37
2023-07-27T20:55:02.377Z,3.10
2023-07-27T20:57:30.425Z,4.15
2023-07-27T21:00:00.079Z,4.05
2023-07-27T21:02:26.639Z,5.15
2023-07-27T21:04:53.345Z,4.57
2023-07-27T21:07:26.897Z,5.50
2023-07-27T21:09:57.158Z,3.75
2023-07-27T21:12:28.969Z,4.65
2023-07-27T21:14:58.497Z,5.85
2023-07-27T21:17:29.585Z,6.37
2023-07-27T21:19:58.695Z,4.63
2023-07-27T21:22:25.417Z,4.85
2023-07-27T21:24:52.000Z,5.00
2023-07-27T21:27:20.957Z,5.68
2023-07-27T21:29:50.044Z,5.50
2023-07-27T21:32:16.742Z,4.35
2023-07-27T21:34:45.688Z,6.50
2023-07-27T21:37:14.562Z,3.78
2023-07-27T21:39:41.184Z,3.90
2023-07-27T21:42:07.910Z,6.07
2023-07-27T21:44:39.322Z,3.95
2023-07-27T21:47:06.308Z,5.07
2023-07-27T21:49:32.879Z,3.78
2023-07-27T21:52:01.758Z,5.15
2023-07-27T21:54:34.454Z,4.50
2023-07-27T21:57:06.071Z,4.90
2023-07-27T21:59:35.458Z,5.07
2023-07-27T22:02:02.153Z,4.65
2023-07-27T22:04:30.930Z,5.60
2023-07-27T22:06:58.054Z,4.27
2023-07-27T22:09:27.157Z,5.47
2023-07-27T22:11:53.940Z,5.30
2023-07-27T22:14:20.557Z,5.20
2023-07-27T22:16:47.174Z,5.15
2023-07-27T22:19:16.283Z,5.53
2023-07-27T22:21:47.600Z,5.00
2023-07-27T22:24:14.317Z,8.25
2023-07-27T22:26:43.110Z,5.53
2023-07-27T22:29:09.861Z,6.43
2023-07-27T22:31:36.550Z,5.73
2023-07-27T22:34:03.689Z,5.68
2023-07-27T22:36:30.326Z,7.03
2023-07-27T22:38:56.988Z,4.75
2023-07-27T22:41:26.505Z,4.90
2023-07-27T22:43:53.121Z,9.00
2023-07-27T22:46:19.809Z,5.00
2023-07-27T22:48:50.879Z,4.18
2023-07-27T22:51:17.592Z,4.07
2023-07-27T22:53:44.248Z,5.80
2023-07-27T22:56:10.932Z,5.20
2023-07-27T22:58:37.550Z,5.32
2023-07-27T23:01:11.201Z,4.80
2023-07-27T23:03:38.360Z,4.75
2023-07-27T23:06:05.660Z,4.43
2023-07-27T23:08:35.610Z,4.77
2023-07-27T23:11:05.176Z,4.18
2023-07-27T23:13:32.500Z,5.43
2023-07-27T23:16:02.110Z,6.90
2023-07-27T23:18:28.816Z,5.05
2023-07-27T23:20:57.751Z,4.23
2023-07-27T23:23:24.380Z,5.28
2023-07-27T23:25:51.083Z,5.90
2023-07-27T23:28:17.695Z,4.93
2023-07-27T23:30:44.352Z,3.88
2023-07-27T23:33:10.969Z,5.70
2023-07-27T23:35:37.635Z,4.32
2023-07-27T23:38:04.465Z,4.57
2023-07-27T23:40:31.075Z,4.53
2023-07-27T23:43:00.123Z,6.35
2023-07-27T23:45:29.044Z,4.97
2023-07-27T23:47:55.662Z,6.93
2023-07-27T23:50:24.639Z,5.45
2023-07-27T23:52:51.333Z,7.22
2023-07-27T23:55:18.037Z,5.18
2023-07-27T23:57:45.047Z,5.30
